메인 페이지
METAR-TAF:

METAR-TAF

공항 :

알아인, 아랍에미리트

위도: 24-16N, 경도: 055-36E, 고도: 265m

현재 날씨관측

예보는 31분 전, 09:00시(UTC)에 발표되었습니다.
11kt
온도 43°C
습도 16%
기압 1004 hPa
시정 10km 이상
1500m 미만 상공 구름 및 적란운 없음

METAR: OMAL 040900Z 27011KT CAVOK 43/12 Q1004 NOSIG

시각: 13:31 (09:31 UTC)

예보

예보는 4 시간 31분 전, 05:00시(UTC)에 발표되었습니다.
예보 대상 시간: 04일 06시부터 05일 12시까지 (UTC)
서남서5kt
시정: 8000m
전환 중
04일 09시부터 04일 11시까지 (UTC)
북서15kt
전환 중
04일 18시부터 04일 20시까지 (UTC)
여러 방향의 바람 2kt
전환 중
05일 05시부터 05일 07시까지 (UTC)
서북서12kt

TAF: OMAL 040500Z 0406/0512 25005KT 8000 NSC BECMG 0409/0411 31015KT BECMG 0418/0420 VRB02KT BECMG 0505/0507 30012KT

4,000개 이상의 공항 관측 자료 및 예보 (METAR 및 TAF 보고).

지도상에서 검색 가능한 기상관측소가 노란 점과 빨간 점으로 표시되어 있습니다.

기상관측소 명을 보려면 표시 위로 마우스를 이동하세요.

날씨 관측과 예보를 보려면 클릭하세요.

지도 변경 : 확대하려면 엑스 표시가 있는 녹색 버튼, 축소하려면 빼기 표시가 있는 녹색 버튼, 다음 페이지의 지도를 보려면 녹색 화살표를 클릭하세요.


METAR-TAF: